createdAt,value
2018-06-01T00:01:26.760Z,54.86
2018-06-01T00:03:54.184Z,54.91
2018-06-01T00:06:21.593Z,54.91
2018-06-01T00:08:49.021Z,54.98
2018-06-01T00:11:16.450Z,55.02
2018-06-01T00:13:43.863Z,55.14
2018-06-01T00:16:11.293Z,55.25
2018-06-01T00:18:38.725Z,55.33
2018-06-01T00:21:06.136Z,55.40
2018-06-01T00:23:33.580Z,55.50
2018-06-01T00:26:01.832Z,55.57
2018-06-01T00:28:29.268Z,55.68
2018-06-01T00:30:56.672Z,55.65
2018-06-01T00:33:24.097Z,55.72
2018-06-01T00:35:51.500Z,55.77
2018-06-01T00:38:18.937Z,55.76
2018-06-01T00:40:46.371Z,55.91
2018-06-01T00:43:13.793Z,55.86
2018-06-01T00:45:41.197Z,55.94
2018-06-01T00:48:08.621Z,55.82
2018-06-01T00:50:36.042Z,55.83
2018-06-01T00:53:03.466Z,55.83
2018-06-01T00:55:30.892Z,55.87
2018-06-01T00:57:58.315Z,55.95
2018-06-01T01:00:25.712Z,55.83
2018-06-01T01:02:53.140Z,55.87
2018-06-01T01:05:20.557Z,55.89
2018-06-01T01:07:47.981Z,55.99
2018-06-01T01:10:15.408Z,56.19
2018-06-01T01:12:42.829Z,56.29
2018-06-01T01:15:10.248Z,56.34
2018-06-01T01:17:37.664Z,56.59
2018-06-01T01:20:05.081Z,56.81
2018-06-01T01:22:32.497Z,56.85
2018-06-01T01:24:59.924Z,56.98
2018-06-01T01:27:27.325Z,56.94
2018-06-01T01:29:54.737Z,56.88
2018-06-01T01:32:22.174Z,56.87
2018-06-01T01:34:49.600Z,56.94
2018-06-01T01:37:22.943Z,56.90
2018-06-01T01:39:50.372Z,56.82
2018-06-01T01:42:17.776Z,56.85
2018-06-01T01:44:45.197Z,56.87
2018-06-01T01:47:12.616Z,56.93
2018-06-01T01:49:40.031Z,56.96
2018-06-01T01:52:07.441Z,57.03
2018-06-01T01:54:34.856Z,57.06
2018-06-01T01:57:02.260Z,57.00
2018-06-01T01:59:29.679Z,57.01
2018-06-01T02:01:57.093Z,57.00
2018-06-01T02:04:24.525Z,57.17
2018-06-01T02:06:51.924Z,57.23
2018-06-01T02:09:19.362Z,57.49
2018-06-01T02:11:46.771Z,57.70
2018-06-01T02:14:14.185Z,57.87
2018-06-01T02:16:41.592Z,57.91
2018-06-01T02:19:09.013Z,57.90
2018-06-01T02:21:36.424Z,57.87
2018-06-01T02:24:03.845Z,57.99
2018-06-01T02:26:31.263Z,58.11
2018-06-01T02:28:58.676Z,58.08
2018-06-01T02:31:26.088Z,57.86
2018-06-01T02:33:53.511Z,57.60
2018-06-01T02:36:20.912Z,57.36
2018-06-01T02:38:48.333Z,57.27
2018-06-01T02:41:15.745Z,57.12
2018-06-01T02:43:43.161Z,56.75
2018-06-01T02:46:10.573Z,56.45
2018-06-01T02:48:37.993Z,56.37
2018-06-01T02:51:05.400Z,56.44
2018-06-01T02:53:32.827Z,56.20
2018-06-01T02:56:00.232Z,56.10
2018-06-01T02:58:27.656Z,55.83
2018-06-01T03:00:55.067Z,55.74
2018-06-01T03:03:22.500Z,55.58
2018-06-01T03:05:49.908Z,55.49
2018-06-01T03:08:17.312Z,55.19
2018-06-01T03:10:44.733Z,55.22
2018-06-01T03:13:12.152Z,55.05
2018-06-01T03:15:39.574Z,54.97
2018-06-01T03:18:06.984Z,54.76
2018-06-01T03:20:34.408Z,54.73
2018-06-01T03:23:01.804Z,54.68
2018-06-01T03:25:29.239Z,54.47
2018-06-01T03:27:56.648Z,54.45
2018-06-01T03:30:24.065Z,54.26
2018-06-01T03:32:51.476Z,54.27
2018-06-01T03:35:18.919Z,54.17
2018-06-01T03:37:46.329Z,54.04
2018-06-01T03:40:13.749Z,53.82
2018-06-01T03:42:41.157Z,53.98
2018-06-01T03:45:08.580Z,53.94
2018-06-01T03:50:09.748Z,53.83
2018-06-01T03:52:37.156Z,53.88
2018-06-01T03:55:04.568Z,53.87
2018-06-01T03:57:31.994Z,53.85
2018-06-01T03:59:59.412Z,53.90
2018-06-01T04:02:26.840Z,54.08
2018-06-01T04:04:54.268Z,54.10
2018-06-01T04:07:21.684Z,54.33
2018-06-01T04:09:49.113Z,54.46
2018-06-01T04:12:16.529Z,54.53
2018-06-01T04:14:43.957Z,54.70
2018-06-01T04:17:11.361Z,54.72
2018-06-01T04:19:38.784Z,54.83
2018-06-01T04:22:06.212Z,54.91
2018-06-01T04:24:33.629Z,54.95
2018-06-01T04:27:01.028Z,54.92
2018-06-01T04:29:28.449Z,55.25
2018-06-01T04:31:55.873Z,55.69
2018-06-01T04:34:23.296Z,56.09
2018-06-01T04:36:50.699Z,56.10
2018-06-01T04:39:18.121Z,56.79
2018-06-01T04:41:45.534Z,56.53
2018-06-01T04:44:12.956Z,56.81
2018-06-01T04:46:40.364Z,56.81
2018-06-01T04:49:07.783Z,57.02
2018-06-01T04:51:35.183Z,57.25
2018-06-01T04:54:02.605Z,57.77
2018-06-01T04:56:30.012Z,57.96
2018-06-01T04:58:57.441Z,58.05
2018-06-01T05:01:24.866Z,57.92
2018-06-01T05:03:52.314Z,57.91
2018-06-01T05:06:19.723Z,58.16
2018-06-01T05:08:47.128Z,57.97
2018-06-01T05:11:14.549Z,58.00
2018-06-01T05:13:41.964Z,57.87
2018-06-01T05:16:09.376Z,57.78
2018-06-01T05:18:36.785Z,57.66
2018-06-01T05:21:04.212Z,57.67
2018-06-01T05:23:31.620Z,57.73
2018-06-01T05:25:59.039Z,57.76
2018-06-01T05:28:26.450Z,57.60
2018-06-01T05:30:53.876Z,57.62
2018-06-01T05:33:21.284Z,57.47
2018-06-01T05:35:48.709Z,57.42
2018-06-01T05:38:16.120Z,57.37
2018-06-01T05:40:43.543Z,57.11
2018-06-01T05:43:10.949Z,57.11
2018-06-01T05:45:38.371Z,57.12
2018-06-01T05:48:05.774Z,57.08
2018-06-01T05:50:33.200Z,56.97
2018-06-01T05:53:00.639Z,56.74
2018-06-01T05:55:28.058Z,56.56
2018-06-01T05:57:55.500Z,56.30
2018-06-01T06:00:22.913Z,56.05
2018-06-01T06:02:50.325Z,55.94
2018-06-01T06:05:17.765Z,55.89
2018-06-01T06:07:45.168Z,55.69
2018-06-01T06:10:12.593Z,55.40
2018-06-01T06:12:40.018Z,55.07
2018-06-01T06:15:07.434Z,54.78
2018-06-01T06:17:34.857Z,54.31
2018-06-01T06:20:02.273Z,54.47
2018-06-01T06:22:29.696Z,54.04
2018-06-01T06:24:57.148Z,54.19
2018-06-01T06:27:24.584Z,54.05
2018-06-01T06:29:52.004Z,53.71
2018-06-01T06:32:19.433Z,53.38
2018-06-01T06:34:46.848Z,53.20
2018-06-01T06:37:14.273Z,53.07
2018-06-01T06:39:41.685Z,52.39
2018-06-01T06:42:09.111Z,52.47
2018-06-01T06:44:36.524Z,52.25
2018-06-01T06:47:03.949Z,52.04
2018-06-01T06:49:31.368Z,51.77
2018-06-01T06:51:58.793Z,51.26
2018-06-01T06:54:26.204Z,51.34
2018-06-01T06:56:53.624Z,50.69
2018-06-01T06:59:21.045Z,51.05
2018-06-01T07:01:48.476Z,50.90
2018-06-01T07:04:15.885Z,50.74
2018-06-01T07:06:43.313Z,50.53
2018-06-01T07:09:10.732Z,50.02
2018-06-01T07:11:38.148Z,49.80
2018-06-01T07:14:05.569Z,49.72
2018-06-01T07:16:32.996Z,49.20
2018-06-01T07:19:00.411Z,49.47
2018-06-01T07:21:27.834Z,49.37
2018-06-01T07:23:55.255Z,49.06
2018-06-01T07:26:22.677Z,48.95
2018-06-01T07:28:50.093Z,48.80
2018-06-01T07:31:17.529Z,48.47
2018-06-01T07:33:44.954Z,47.93
2018-06-01T07:36:12.377Z,47.72
2018-06-01T07:38:39.798Z,47.30
2018-06-01T07:41:07.249Z,47.14
2018-06-01T07:43:34.667Z,47.13
2018-06-01T07:46:02.109Z,46.71
2018-06-01T07:48:29.528Z,46.22
2018-06-01T07:50:56.950Z,45.79
2018-06-01T07:53:24.372Z,45.38
2018-06-01T07:55:51.799Z,45.01
2018-06-01T07:58:19.216Z,44.61
2018-06-01T08:00:46.632Z,44.36
2018-06-01T08:03:14.062Z,44.29
2018-06-01T08:05:41.481Z,43.99
2018-06-01T08:08:08.909Z,43.90
2018-06-01T08:10:36.320Z,43.27
2018-06-01T08:13:03.744Z,42.96
2018-06-01T08:15:31.165Z,42.67
2018-06-01T08:17:58.599Z,42.42
2018-06-01T08:20:26.008Z,41.76
2018-06-01T08:22:53.437Z,41.58
2018-06-01T08:25:20.848Z,41.29
2018-06-01T08:27:48.297Z,41.05
2018-06-01T08:30:15.713Z,40.82
2018-06-01T08:32:43.133Z,40.49
2018-06-01T08:35:10.552Z,40.02
2018-06-01T08:37:37.984Z,39.75
2018-06-01T08:40:05.404Z,39.24
2018-06-01T08:42:32.824Z,39.08
2018-06-01T08:45:00.241Z,38.89
2018-06-01T08:47:27.692Z,38.70
2018-06-01T08:49:55.141Z,38.22
2018-06-01T08:52:22.574Z,37.95
2018-06-01T08:54:50.003Z,37.63
2018-06-01T08:57:17.428Z,37.22
2018-06-01T08:59:44.849Z,36.81
2018-06-01T09:02:12.288Z,36.16
2018-06-01T09:04:39.779Z,36.14
2018-06-01T09:07:07.133Z,35.77
2018-06-01T09:09:34.586Z,35.79
2018-06-01T09:12:02.018Z,35.56
2018-06-01T09:14:29.436Z,35.31
2018-06-01T09:16:56.859Z,35.08
2018-06-01T09:19:24.288Z,35.20
2018-06-01T09:21:51.750Z,35.02
2018-06-01T09:24:19.183Z,34.80
2018-06-01T09:26:46.649Z,34.64
2018-06-01T09:29:14.064Z,34.58
2018-06-01T09:31:41.484Z,34.25
2018-06-01T09:34:08.920Z,34.11
2018-06-01T09:36:36.354Z,34.09
2018-06-01T09:39:03.792Z,33.76
2018-06-01T09:41:31.212Z,33.63
2018-06-01T09:43:58.651Z,33.51
2018-06-01T09:46:26.074Z,33.23
2018-06-01T09:48:53.535Z,32.69
2018-06-01T09:51:20.960Z,32.69
2018-06-01T09:53:48.397Z,32.40
2018-06-01T09:56:15.817Z,32.08
2018-06-01T09:58:43.240Z,32.03
2018-06-01T10:01:10.660Z,31.75
2018-06-01T10:03:38.089Z,31.45
2018-06-01T10:06:05.508Z,31.19
2018-06-01T10:08:32.936Z,31.04
2018-06-01T10:11:06.061Z,30.67
2018-06-01T10:13:33.484Z,30.77
2018-06-01T10:16:00.901Z,30.66
2018-06-01T10:18:28.337Z,30.51
2018-06-01T10:20:55.759Z,30.43
2018-06-01T10:23:23.190Z,29.77
2018-06-01T10:25:50.612Z,30.09
2018-06-01T10:28:18.044Z,29.98
2018-06-01T10:30:45.554Z,29.84
2018-06-01T10:33:12.977Z,29.71
2018-06-01T10:35:40.432Z,29.18
2018-06-01T10:38:07.863Z,29.20
2018-06-01T10:40:35.285Z,28.68
2018-06-01T10:43:02.717Z,29.06
2018-06-01T10:45:30.144Z,28.78
2018-06-01T10:47:57.582Z,28.67
2018-06-01T10:50:25.009Z,28.51
2018-06-01T10:52:52.435Z,28.30
2018-06-01T10:55:19.864Z,28.20
2018-06-01T10:57:47.307Z,27.94
2018-06-01T11:00:14.737Z,28.01
2018-06-01T11:02:42.156Z,27.81
2018-06-01T11:05:09.581Z,27.67
2018-06-01T11:07:37.012Z,27.57
2018-06-01T11:10:04.449Z,27.56
2018-06-01T11:12:31.869Z,27.46
2018-06-01T11:14:59.310Z,27.36
2018-06-01T11:17:26.750Z,27.26
2018-06-01T11:19:54.172Z,27.26
2018-06-01T11:22:21.593Z,27.36
2018-06-01T11:24:49.028Z,27.14
2018-06-01T11:27:16.466Z,27.09
2018-06-01T11:29:43.897Z,27.06
2018-06-01T11:32:11.328Z,27.08
2018-06-01T11:34:38.752Z,27.04
2018-06-01T11:37:06.179Z,26.89
2018-06-01T11:39:33.620Z,26.88
2018-06-01T11:42:01.044Z,26.97
2018-06-01T11:44:28.486Z,26.83
2018-06-01T11:46:55.907Z,26.84
2018-06-01T11:49:24.224Z,26.76
2018-06-01T11:51:51.649Z,26.69
2018-06-01T11:54:19.092Z,26.58
2018-06-01T11:56:46.521Z,26.57
2018-06-01T11:59:13.956Z,26.81
2018-06-01T12:01:41.387Z,26.71
2018-06-01T12:04:08.830Z,26.63
2018-06-01T12:06:36.264Z,26.43
2018-06-01T12:09:03.699Z,26.18
2018-06-01T12:11:31.125Z,26.05
2018-06-01T12:13:58.552Z,25.69
2018-06-01T12:16:25.975Z,25.46
2018-06-01T12:18:53.412Z,25.20
2018-06-01T12:21:20.836Z,25.03
2018-06-01T12:23:48.268Z,24.82
2018-06-01T12:26:15.693Z,24.70
2018-06-01T12:28:43.121Z,24.53
2018-06-01T12:31:10.549Z,24.34
2018-06-01T12:33:37.981Z,24.36
2018-06-01T12:36:05.405Z,24.16
2018-06-01T12:38:32.873Z,24.30
2018-06-01T12:41:00.317Z,24.36
2018-06-01T12:43:27.748Z,24.40
2018-06-01T12:45:55.169Z,24.40
2018-06-01T12:48:22.610Z,24.39
2018-06-01T12:50:50.060Z,24.44
2018-06-01T12:53:17.489Z,24.30
2018-06-01T12:55:45.018Z,24.24
2018-06-01T12:58:12.432Z,24.12
2018-06-01T13:00:39.918Z,23.79
2018-06-01T13:03:07.341Z,23.61
2018-06-01T13:05:34.781Z,23.49
2018-06-01T13:08:02.205Z,23.35
2018-06-01T13:10:29.636Z,23.23
2018-06-01T13:12:57.070Z,23.19
2018-06-01T13:15:24.509Z,23.11
2018-06-01T13:17:51.944Z,22.74
2018-06-01T13:20:19.377Z,22.75
2018-06-01T13:22:46.798Z,22.74
2018-06-01T13:25:14.239Z,22.66
2018-06-01T13:27:41.672Z,22.51
2018-06-01T13:30:09.137Z,22.65
2018-06-01T13:32:36.527Z,22.85
2018-06-01T13:35:03.965Z,23.01
2018-06-01T13:37:31.411Z,23.03
2018-06-01T13:39:58.838Z,22.99
2018-06-01T13:42:26.272Z,22.98
2018-06-01T13:44:53.698Z,22.94
2018-06-01T13:47:21.120Z,22.97
2018-06-01T13:49:48.604Z,23.23
2018-06-01T13:52:16.028Z,23.31
2018-06-01T13:54:43.468Z,23.42
2018-06-01T13:57:10.895Z,23.49
2018-06-01T13:59:38.329Z,23.50
2018-06-01T14:02:05.749Z,23.50
2018-06-01T14:04:33.183Z,23.51
2018-06-01T14:07:00.608Z,23.42
2018-06-01T14:09:28.081Z,23.41
2018-06-01T14:11:55.481Z,23.38
2018-06-01T14:14:22.908Z,23.39
2018-06-01T14:16:50.340Z,23.24
2018-06-01T14:19:17.813Z,23.14
2018-06-01T14:21:45.191Z,23.19
2018-06-01T14:24:12.618Z,23.31
2018-06-01T14:26:40.108Z,23.41
2018-06-01T14:29:07.469Z,23.60
2018-06-01T14:31:34.984Z,23.47
2018-06-01T14:34:02.441Z,23.51
2018-06-01T14:36:29.868Z,23.64
2018-06-01T14:38:57.297Z,23.80
2018-06-01T14:41:24.738Z,23.94
2018-06-01T14:43:52.152Z,24.00
2018-06-01T14:46:19.592Z,24.25
2018-06-01T14:48:47.028Z,24.75
2018-06-01T14:51:14.476Z,25.27
2018-06-01T14:53:41.900Z,26.06
2018-06-01T14:56:09.338Z,26.49
2018-06-01T14:58:36.757Z,26.99
2018-06-01T15:01:04.188Z,27.26
2018-06-01T15:03:31.621Z,27.60
2018-06-01T15:05:59.048Z,27.99
2018-06-01T15:08:26.476Z,28.84
2018-06-01T15:10:53.896Z,29.06
2018-06-01T15:13:21.316Z,29.54
2018-06-01T15:15:48.756Z,29.96
2018-06-01T15:18:16.181Z,30.53
2018-06-01T15:20:43.616Z,30.84
2018-06-01T15:23:11.040Z,31.17
2018-06-01T15:25:38.492Z,31.51
2018-06-01T15:28:05.893Z,31.82
2018-06-01T15:30:33.320Z,32.00
2018-06-01T15:33:00.732Z,32.28
2018-06-01T15:35:28.154Z,32.59
2018-06-01T15:37:55.568Z,32.70
2018-06-01T15:40:22.996Z,33.03
2018-06-01T15:42:50.404Z,33.24
2018-06-01T15:45:17.821Z,33.46
2018-06-01T15:47:45.237Z,33.63
2018-06-01T15:50:12.658Z,33.75
2018-06-01T15:52:40.085Z,33.86
2018-06-01T15:55:07.500Z,33.89
2018-06-01T15:57:34.934Z,33.96
2018-06-01T16:00:02.348Z,34.11
2018-06-01T16:02:29.779Z,34.25
2018-06-01T16:04:57.215Z,34.32
2018-06-01T16:07:24.645Z,34.33
2018-06-01T16:09:52.061Z,34.37
2018-06-01T16:12:19.498Z,34.57
2018-06-01T16:14:46.948Z,34.54
2018-06-01T16:17:14.357Z,34.55
2018-06-01T16:19:41.776Z,34.50
2018-06-01T16:22:09.216Z,34.46
2018-06-01T16:24:36.670Z,34.56
2018-06-01T16:27:04.102Z,34.65
2018-06-01T16:29:31.521Z,34.85
2018-06-01T16:31:58.970Z,34.92
2018-06-01T16:34:26.385Z,34.60
2018-06-01T16:36:53.821Z,34.63
2018-06-01T16:39:21.267Z,34.95
2018-06-01T16:41:48.743Z,35.17
2018-06-01T16:44:16.117Z,35.34
2018-06-01T16:46:43.527Z,35.83
2018-06-01T16:49:10.962Z,36.28
2018-06-01T16:51:38.384Z,37.08
2018-06-01T16:54:05.825Z,37.33
2018-06-01T16:56:33.241Z,37.97
2018-06-01T16:59:00.664Z,38.99
2018-06-01T17:01:28.076Z,40.34
2018-06-01T17:03:55.516Z,41.54
2018-06-01T17:06:22.937Z,42.25
2018-06-01T17:08:50.391Z,42.88
2018-06-01T17:11:17.816Z,43.30
2018-06-01T17:13:45.250Z,43.85
2018-06-01T17:16:12.665Z,44.58
2018-06-01T17:18:40.100Z,45.15
2018-06-01T17:21:07.531Z,45.57
2018-06-01T17:23:35.192Z,46.17
2018-06-01T17:26:02.671Z,46.68
2018-06-01T17:28:30.036Z,47.38
2018-06-01T17:30:57.468Z,47.72
2018-06-01T17:33:24.895Z,48.09
2018-06-01T17:35:52.334Z,48.53
2018-06-01T17:38:19.753Z,48.96
2018-06-01T17:40:47.177Z,49.30
2018-06-01T17:43:14.586Z,49.57
2018-06-01T17:45:42.008Z,49.88
2018-06-01T17:48:09.418Z,50.31
2018-06-01T17:50:36.868Z,50.72
2018-06-01T17:53:04.269Z,51.02
2018-06-01T17:55:31.696Z,51.27
2018-06-01T17:57:59.963Z,51.59
2018-06-01T18:00:27.392Z,51.81
2018-06-01T18:02:54.800Z,51.98
2018-06-01T18:05:22.250Z,52.05
2018-06-01T18:07:49.651Z,52.07
2018-06-01T18:10:17.081Z,52.06
2018-06-01T18:12:44.502Z,51.92
2018-06-01T18:15:12.660Z,51.85
2018-06-01T18:17:40.071Z,51.89
2018-06-01T18:20:07.491Z,52.00
2018-06-01T18:22:35.022Z,52.21
2018-06-01T18:25:02.368Z,52.45
2018-06-01T18:27:29.794Z,52.54
2018-06-01T18:29:57.207Z,52.64
2018-06-01T18:32:24.643Z,52.68
2018-06-01T18:34:52.055Z,52.81
2018-06-01T18:37:19.484Z,52.97
2018-06-01T18:39:46.900Z,53.17
2018-06-01T18:42:14.343Z,53.39
2018-06-01T18:44:41.754Z,53.60
2018-06-01T18:47:09.185Z,53.72
2018-06-01T18:49:36.609Z,53.79
2018-06-01T18:52:04.024Z,53.91
2018-06-01T18:54:31.449Z,53.96
2018-06-01T18:56:58.876Z,54.04
2018-06-01T18:59:26.285Z,54.14
2018-06-01T19:01:53.715Z,54.25
2018-06-01T19:04:21.132Z,54.27
2018-06-01T19:06:48.552Z,54.35
2018-06-01T19:09:15.966Z,54.50
2018-06-01T19:11:43.396Z,54.61
2018-06-01T19:14:10.813Z,54.70
2018-06-01T19:16:38.244Z,54.77
2018-06-01T19:19:05.663Z,54.89
2018-06-01T19:21:33.115Z,54.92
2018-06-01T19:24:00.529Z,54.90
2018-06-01T19:26:27.964Z,54.99
2018-06-01T19:28:55.410Z,55.01
2018-06-01T19:31:22.817Z,54.99
2018-06-01T19:33:50.235Z,55.12
2018-06-01T19:36:17.673Z,55.41
2018-06-01T19:38:45.093Z,55.87
2018-06-01T19:41:12.537Z,56.13
2018-06-01T19:43:39.953Z,56.38
2018-06-01T19:46:07.367Z,56.18
2018-06-01T19:48:34.788Z,56.36
2018-06-01T19:51:02.204Z,56.14
2018-06-01T19:53:29.628Z,56.21
2018-06-01T19:55:57.040Z,56.32
2018-06-01T19:58:24.468Z,56.68
2018-06-01T20:00:51.884Z,56.90
2018-06-01T20:03:20.183Z,57.07
2018-06-01T20:05:47.595Z,57.38
2018-06-01T20:08:15.016Z,57.61
2018-06-01T20:10:42.431Z,57.59
2018-06-01T20:13:09.909Z,57.57
2018-06-01T20:15:37.277Z,57.46
2018-06-01T20:18:04.714Z,57.37
2018-06-01T20:20:32.128Z,57.39
2018-06-01T20:22:59.648Z,57.30
2018-06-01T20:25:27.108Z,57.25
2018-06-01T20:27:54.546Z,57.13
2018-06-01T20:30:21.995Z,57.15
2018-06-01T20:32:49.409Z,57.03
2018-06-01T20:35:16.829Z,56.92
2018-06-01T20:37:44.269Z,56.81
2018-06-01T20:40:11.708Z,56.76
2018-06-01T20:42:39.130Z,56.59
2018-06-01T20:45:06.643Z,56.48
2018-06-01T20:47:34.128Z,56.31
2018-06-01T20:50:01.543Z,56.20
2018-06-01T20:52:29.015Z,55.90
2018-06-01T20:54:56.464Z,55.61
2018-06-01T20:57:23.884Z,55.30
2018-06-01T20:59:51.373Z,54.94
2018-06-01T21:02:18.796Z,54.75
2018-06-01T21:04:46.280Z,54.64
2018-06-01T21:07:13.703Z,54.47
2018-06-01T21:09:41.161Z,54.62
2018-06-01T21:12:08.545Z,54.50
2018-06-01T21:14:36.005Z,54.46
2018-06-01T21:17:03.420Z,54.45
2018-06-01T21:19:30.836Z,54.62
2018-06-01T21:21:58.257Z,54.71
2018-06-01T21:24:25.687Z,54.90
2018-06-01T21:26:53.101Z,55.11
2018-06-01T21:29:20.516Z,55.42
2018-06-01T21:31:47.929Z,55.61
2018-06-01T21:34:15.356Z,55.84
2018-06-01T21:36:42.777Z,56.11
2018-06-01T21:39:10.206Z,56.50
2018-06-01T21:41:37.621Z,56.78
2018-06-01T21:44:05.053Z,56.95
2018-06-01T21:46:32.464Z,57.23
2018-06-01T21:48:59.893Z,57.45
2018-06-01T21:51:27.344Z,57.58
2018-06-01T21:53:54.776Z,57.77
2018-06-01T21:56:22.184Z,58.01
2018-06-01T21:58:49.600Z,58.12
2018-06-01T22:01:17.030Z,58.19
2018-06-01T22:03:44.440Z,58.22
2018-06-01T22:06:11.862Z,58.23
2018-06-01T22:08:39.285Z,58.23
2018-06-01T22:11:06.701Z,58.22
2018-06-01T22:13:34.128Z,58.21
2018-06-01T22:16:01.542Z,58.19
2018-06-01T22:18:28.961Z,58.25
2018-06-01T22:20:56.380Z,58.24
2018-06-01T22:23:23.805Z,58.24
2018-06-01T22:25:51.220Z,58.35
2018-06-01T22:28:18.648Z,58.42
2018-06-01T22:30:46.071Z,58.53
2018-06-01T22:33:13.492Z,58.70
2018-06-01T22:35:40.907Z,59.00
2018-06-01T22:38:08.332Z,59.21
2018-06-01T22:40:35.752Z,59.39
2018-06-01T22:43:03.176Z,59.54
2018-06-01T22:45:30.588Z,59.64
2018-06-01T22:47:58.021Z,59.80
2018-06-01T22:50:25.436Z,59.98
2018-06-01T22:52:52.876Z,60.03
2018-06-01T22:55:20.288Z,60.15
2018-06-01T22:57:47.701Z,60.22
2018-06-01T23:00:20.900Z,60.28
2018-06-01T23:02:48.317Z,60.25
2018-06-01T23:05:15.744Z,60.35
2018-06-01T23:07:43.164Z,60.39
2018-06-01T23:10:10.604Z,60.44
2018-06-01T23:12:38.016Z,60.49
2018-06-01T23:15:05.433Z,60.56
2018-06-01T23:17:32.849Z,60.64
2018-06-01T23:20:00.283Z,60.67
2018-06-01T23:22:27.683Z,60.73
2018-06-01T23:24:55.112Z,60.86
2018-06-01T23:27:22.537Z,60.94
2018-06-01T23:29:49.960Z,61.01
2018-06-01T23:32:17.380Z,61.16
2018-06-01T23:34:44.809Z,61.29
2018-06-01T23:37:12.233Z,61.39
2018-06-01T23:39:39.656Z,61.56
2018-06-01T23:42:07.076Z,61.80
2018-06-01T23:44:34.495Z,61.80
2018-06-01T23:47:01.908Z,61.84
2018-06-01T23:49:29.394Z,62.08
2018-06-01T23:51:56.807Z,62.06
2018-06-01T23:54:24.304Z,62.07
2018-06-01T23:56:51.716Z,61.97
2018-06-01T23:59:19.219Z,62.04
